Lansdowne, Virginia
Current Conditions -  °F | °C
As of 11:15 AM on Wednesday 22 Oct 2014 (Local Time) from KJYO Reporting Station
Overcast Overcast  
Wind Chill: 55°   Ceiling: 3000
Heat Index: 55°   Visibility: 10mi
Dew Point: 52°   Wind: 18mph
Humidity: 88%   Direction: 360°N
Pressure: 29.97"   Gusts: 25mph
Location:  39.1846°N, 77.5476°W
Report Text: KJYO 221515Z AUTO 36016G22KT 10SM OVC030 13/11 A2997 RMK AO2
Loading
Personal Weather Stations






























Interactive Weather Map
Tropical Storm Tracking
New forecast layout! Learn more

10-Day Weather Forecast

Advertisements
Track Severe Weather on mobile